sensor_id;sensor_type;location;lat;lon;timestamp;temperature;humidity
32366;DHT22;18837;46.832;16.838;2023-04-25T00:00:03;15.00;86.20
32366;DHT22;18837;46.832;16.838;2023-04-25T00:02:32;15.00;85.90
32366;DHT22;18837;46.832;16.838;2023-04-25T00:05:01;15.00;86.10
32366;DHT22;18837;46.832;16.838;2023-04-25T00:07:27;15.00;86.10
32366;DHT22;18837;46.832;16.838;2023-04-25T00:09:53;15.00;85.90
32366;DHT22;18837;46.832;16.838;2023-04-25T00:12:18;15.00;85.80
32366;DHT22;18837;46.832;16.838;2023-04-25T00:14:44;15.00;86.40
32366;DHT22;18837;46.832;16.838;2023-04-25T00:17:11;14.90;86.10
32366;DHT22;18837;46.832;16.838;2023-04-25T00:19:36;14.90;85.90
32366;DHT22;18837;46.832;16.838;2023-04-25T00:22:03;14.90;86.80
32366;DHT22;18837;46.832;16.838;2023-04-25T00:24:29;14.90;86.10
32366;DHT22;18837;46.832;16.838;2023-04-25T00:26:55;14.90;86.20
32366;DHT22;18837;46.832;16.838;2023-04-25T00:29:20;14.90;86.30
32366;DHT22;18837;46.832;16.838;2023-04-25T00:31:46;14.90;86.20
32366;DHT22;18837;46.832;16.838;2023-04-25T00:34:13;14.90;86.30
32366;DHT22;18837;46.832;16.838;2023-04-25T00:36:39;14.90;86.10
32366;DHT22;18837;46.832;16.838;2023-04-25T00:39:04;14.90;86.40
32366;DHT22;18837;46.832;16.838;2023-04-25T00:41:32;14.90;86.30
32366;DHT22;18837;46.832;16.838;2023-04-25T00:43:59;14.90;86.40
32366;DHT22;18837;46.832;16.838;2023-04-25T00:46:26;14.90;86.20
32366;DHT22;18837;46.832;16.838;2023-04-25T00:48:52;14.90;86.40
32366;DHT22;18837;46.832;16.838;2023-04-25T00:51:20;14.80;86.50
32366;DHT22;18837;46.832;16.838;2023-04-25T00:53:47;14.80;86.20
32366;DHT22;18837;46.832;16.838;2023-04-25T00:56:14;14.80;86.50
32366;DHT22;18837;46.832;16.838;2023-04-25T00:58:41;14.80;86.20
32366;DHT22;18837;46.832;16.838;2023-04-25T01:01:08;14.80;86.30
32366;DHT22;18837;46.832;16.838;2023-04-25T01:03:38;14.80;86.30
32366;DHT22;18837;46.832;16.838;2023-04-25T01:06:08;14.80;86.50
32366;DHT22;18837;46.832;16.838;2023-04-25T01:08:38;14.80;86.40
32366;DHT22;18837;46.832;16.838;2023-04-25T01:11:05;14.80;86.40
32366;DHT22;18837;46.832;16.838;2023-04-25T01:13:31;14.80;86.30
32366;DHT22;18837;46.832;16.838;2023-04-25T01:15:58;14.80;86.50
32366;DHT22;18837;46.832;16.838;2023-04-25T01:18:24;14.80;86.60
32366;DHT22;18837;46.832;16.838;2023-04-25T01:20:53;14.80;86.50
32366;DHT22;18837;46.832;16.838;2023-04-25T01:23:21;14.70;86.20
32366;DHT22;18837;46.832;16.838;2023-04-25T01:25:49;14.70;86.30
32366;DHT22;18837;46.832;16.838;2023-04-25T01:28:15;14.70;86.50
32366;DHT22;18837;46.832;16.838;2023-04-25T01:30:41;14.70;86.50
32366;DHT22;18837;46.832;16.838;2023-04-25T01:33:08;14.70;86.30
32366;DHT22;18837;46.832;16.838;2023-04-25T01:35:34;14.70;86.60
32366;DHT22;18837;46.832;16.838;2023-04-25T01:38:00;14.70;86.40
32366;DHT22;18837;46.832;16.838;2023-04-25T01:40:27;14.70;86.50
32366;DHT22;18837;46.832;16.838;2023-04-25T01:42:54;14.70;86.60
32366;DHT22;18837;46.832;16.838;2023-04-25T01:45:20;14.70;86.40
32366;DHT22;18837;46.832;16.838;2023-04-25T01:47:46;14.60;86.60
32366;DHT22;18837;46.832;16.838;2023-04-25T01:50:17;14.60;85.80
32366;DHT22;18837;46.832;16.838;2023-04-25T01:52:43;14.60;86.80
32366;DHT22;18837;46.832;16.838;2023-04-25T01:55:09;14.60;86.80
32366;DHT22;18837;46.832;16.838;2023-04-25T01:57:35;14.60;86.70
32366;DHT22;18837;46.832;16.838;2023-04-25T02:00:04;14.60;85.80
32366;DHT22;18837;46.832;16.838;2023-04-25T02:02:32;14.60;86.00
32366;DHT22;18837;46.832;16.838;2023-04-25T02:04:57;14.60;86.70
32366;DHT22;18837;46.832;16.838;2023-04-25T02:07:26;14.60;86.50
32366;DHT22;18837;46.832;16.838;2023-04-25T02:09:52;14.60;86.90
32366;DHT22;18837;46.832;16.838;2023-04-25T02:12:18;14.60;86.70
32366;DHT22;18837;46.832;16.838;2023-04-25T02:14:44;14.60;86.90
32366;DHT22;18837;46.832;16.838;2023-04-25T02:17:10;14.60;86.90
32366;DHT22;18837;46.832;16.838;2023-04-25T02:19:38;14.60;86.60
32366;DHT22;18837;46.832;16.838;2023-04-25T02:22:03;14.60;86.90
32366;DHT22;18837;46.832;16.838;2023-04-25T02:24:29;14.50;86.90
32366;DHT22;18837;46.832;16.838;2023-04-25T02:26:55;14.60;86.90
32366;DHT22;18837;46.832;16.838;2023-04-25T02:29:21;14.50;87.30
32366;DHT22;18837;46.832;16.838;2023-04-25T02:31:47;14.50;86.80
32366;DHT22;18837;46.832;16.838;2023-04-25T02:34:13;14.50;87.00
32366;DHT22;18837;46.832;16.838;2023-04-25T02:36:39;14.50;86.70
32366;DHT22;18837;46.832;16.838;2023-04-25T02:39:05;14.50;86.90
32366;DHT22;18837;46.832;16.838;2023-04-25T02:41:30;14.50;87.10
32366;DHT22;18837;46.832;16.838;2023-04-25T02:43:56;14.50;87.30
32366;DHT22;18837;46.832;16.838;2023-04-25T02:46:22;14.50;87.00
32366;DHT22;18837;46.832;16.838;2023-04-25T02:48:48;14.50;87.10
32366;DHT22;18837;46.832;16.838;2023-04-25T02:51:13;14.50;87.40
32366;DHT22;18837;46.832;16.838;2023-04-25T02:53:41;14.50;87.40
32366;DHT22;18837;46.832;16.838;2023-04-25T02:56:08;14.40;87.40
32366;DHT22;18837;46.832;16.838;2023-04-25T02:58:33;14.40;86.60
32366;DHT22;18837;46.832;16.838;2023-04-25T03:00:59;14.40;87.10
32366;DHT22;18837;46.832;16.838;2023-04-25T03:03:26;14.40;86.60
32366;DHT22;18837;46.832;16.838;2023-04-25T03:05:53;14.40;87.20
32366;DHT22;18837;46.832;16.838;2023-04-25T03:08:43;14.40;86.50
32366;DHT22;18837;46.832;16.838;2023-04-25T03:11:09;14.40;87.30
32366;DHT22;18837;46.832;16.838;2023-04-25T03:13:35;14.40;87.30
32366;DHT22;18837;46.832;16.838;2023-04-25T03:16:01;14.40;87.60
32366;DHT22;18837;46.832;16.838;2023-04-25T03:18:27;14.40;87.30
32366;DHT22;18837;46.832;16.838;2023-04-25T03:20:53;14.40;87.10
32366;DHT22;18837;46.832;16.838;2023-04-25T03:23:19;14.40;87.30
32366;DHT22;18837;46.832;16.838;2023-04-25T03:25:44;14.30;87.20
32366;DHT22;18837;46.832;16.838;2023-04-25T03:28:10;14.30;87.20
32366;DHT22;18837;46.832;16.838;2023-04-25T03:30:36;14.30;87.60
32366;DHT22;18837;46.832;16.838;2023-04-25T03:33:02;14.30;87.50
32366;DHT22;18837;46.832;16.838;2023-04-25T03:35:28;14.30;87.50
32366;DHT22;18837;46.832;16.838;2023-04-25T03:37:54;14.30;87.60
32366;DHT22;18837;46.832;16.838;2023-04-25T03:40:21;14.30;87.70
32366;DHT22;18837;46.832;16.838;2023-04-25T03:42:48;14.30;87.50
32366;DHT22;18837;46.832;16.838;2023-04-25T03:45:14;14.30;87.30
32366;DHT22;18837;46.832;16.838;2023-04-25T03:47:39;14.20;87.70
32366;DHT22;18837;46.832;16.838;2023-04-25T03:50:06;14.20;87.80
32366;DHT22;18837;46.832;16.838;2023-04-25T03:52:32;14.20;87.40
32366;DHT22;18837;46.832;16.838;2023-04-25T03:54:57;14.20;87.90
32366;DHT22;18837;46.832;16.838;2023-04-25T03:57:23;14.20;87.90
32366;DHT22;18837;46.832;16.838;2023-04-25T03:59:49;14.20;87.30
32366;DHT22;18837;46.832;16.838;2023-04-25T04:02:15;14.20;87.80
32366;DHT22;18837;46.832;16.838;2023-04-25T04:04:41;14.20;87.70
32366;DHT22;18837;46.832;16.838;2023-04-25T04:07:09;14.20;87.50
32366;DHT22;18837;46.832;16.838;2023-04-25T04:09:35;14.20;87.40
32366;DHT22;18837;46.832;16.838;2023-04-25T04:12:01;14.20;87.70
32366;DHT22;18837;46.832;16.838;2023-04-25T04:14:28;14.20;87.70
32366;DHT22;18837;46.832;16.838;2023-04-25T04:16:55;14.10;87.60
32366;DHT22;18837;46.832;16.838;2023-04-25T04:19:21;14.20;88.00
32366;DHT22;18837;46.832;16.838;2023-04-25T04:21:47;14.20;87.80
32366;DHT22;18837;46.832;16.838;2023-04-25T04:24:12;14.10;87.90
32366;DHT22;18837;46.832;16.838;2023-04-25T04:26:39;14.10;87.80
32366;DHT22;18837;46.832;16.838;2023-04-25T04:29:05;14.10;87.60
32366;DHT22;18837;46.832;16.838;2023-04-25T04:31:30;14.10;88.80
32366;DHT22;18837;46.832;16.838;2023-04-25T04:33:57;14.10;87.50
32366;DHT22;18837;46.832;16.838;2023-04-25T04:36:23;14.10;88.10
32366;DHT22;18837;46.832;16.838;2023-04-25T04:38:51;14.10;88.00
32366;DHT22;18837;46.832;16.838;2023-04-25T04:41:18;14.00;88.00
32366;DHT22;18837;46.832;16.838;2023-04-25T04:43:45;14.00;88.00
32366;DHT22;18837;46.832;16.838;2023-04-25T04:46:10;14.00;88.00
32366;DHT22;18837;46.832;16.838;2023-04-25T04:48:38;14.00;87.80
32366;DHT22;18837;46.832;16.838;2023-04-25T04:51:06;14.00;87.90
32366;DHT22;18837;46.832;16.838;2023-04-25T04:53:32;14.00;88.10
32366;DHT22;18837;46.832;16.838;2023-04-25T04:55:58;14.00;87.80
32366;DHT22;18837;46.832;16.838;2023-04-25T04:58:27;13.90;88.20
32366;DHT22;18837;46.832;16.838;2023-04-25T05:00:54;13.90;88.20
32366;DHT22;18837;46.832;16.838;2023-04-25T05:03:20;14.00;87.90
32366;DHT22;18837;46.832;16.838;2023-04-25T05:05:46;13.90;88.00
32366;DHT22;18837;46.832;16.838;2023-04-25T05:08:12;13.90;88.40
32366;DHT22;18837;46.832;16.838;2023-04-25T05:10:37;13.90;88.30
32366;DHT22;18837;46.832;16.838;2023-04-25T05:13:03;13.90;88.20
32366;DHT22;18837;46.832;16.838;2023-04-25T05:15:29;13.90;88.20
32366;DHT22;18837;46.832;16.838;2023-04-25T05:17:55;14.00;88.20
32366;DHT22;18837;46.832;16.838;2023-04-25T05:20:20;13.90;88.20
32366;DHT22;18837;46.832;16.838;2023-04-25T05:22:46;13.90;89.20
32366;DHT22;18837;46.832;16.838;2023-04-25T05:25:12;13.90;88.20
32366;DHT22;18837;46.832;16.838;2023-04-25T05:27:38;13.90;87.90
32366;DHT22;18837;46.832;16.838;2023-04-25T05:30:05;13.90;88.20
32366;DHT22;18837;46.832;16.838;2023-04-25T05:32:31;13.90;88.20
32366;DHT22;18837;46.832;16.838;2023-04-25T05:34:57;13.90;88.50
32366;DHT22;18837;46.832;16.838;2023-04-25T05:37:23;14.00;88.50
32366;DHT22;18837;46.832;16.838;2023-04-25T05:39:49;13.90;88.00
32366;DHT22;18837;46.832;16.838;2023-04-25T05:42:14;13.90;87.90
32366;DHT22;18837;46.832;16.838;2023-04-25T05:44:40;13.90;88.00
32366;DHT22;18837;46.832;16.838;2023-04-25T05:47:06;13.90;88.20
32366;DHT22;18837;46.832;16.838;2023-04-25T05:49:33;14.00;89.10
32366;DHT22;18837;46.832;16.838;2023-04-25T05:51:59;14.00;88.00
32366;DHT22;18837;46.832;16.838;2023-04-25T05:54:25;14.00;88.00
32366;DHT22;18837;46.832;16.838;2023-04-25T05:56:51;14.00;88.80
32366;DHT22;18837;46.832;16.838;2023-04-25T05:59:17;14.00;87.60
32366;DHT22;18837;46.832;16.838;2023-04-25T06:01:42;14.00;88.00
32366;DHT22;18837;46.832;16.838;2023-04-25T06:04:08;14.00;87.70
32366;DHT22;18837;46.832;16.838;2023-04-25T06:06:34;14.00;88.00
32366;DHT22;18837;46.832;16.838;2023-04-25T06:09:00;14.00;88.10
32366;DHT22;18837;46.832;16.838;2023-04-25T06:11:26;14.00;88.30
32366;DHT22;18837;46.832;16.838;2023-04-25T06:13:51;14.00;88.10
32366;DHT22;18837;46.832;16.838;2023-04-25T06:16:17;14.00;87.80
32366;DHT22;18837;46.832;16.838;2023-04-25T06:18:43;14.00;87.70
32366;DHT22;18837;46.832;16.838;2023-04-25T06:21:09;14.00;87.60
32366;DHT22;18837;46.832;16.838;2023-04-25T06:23:35;14.00;87.90
32366;DHT22;18837;46.832;16.838;2023-04-25T06:26:00;14.10;88.50
32366;DHT22;18837;46.832;16.838;2023-04-25T06:28:26;14.10;88.00
32366;DHT22;18837;46.832;16.838;2023-04-25T06:30:52;14.10;87.80
32366;DHT22;18837;46.832;16.838;2023-04-25T06:33:18;14.10;87.70
32366;DHT22;18837;46.832;16.838;2023-04-25T06:35:43;14.10;88.10
32366;DHT22;18837;46.832;16.838;2023-04-25T06:38:09;14.10;87.80
32366;DHT22;18837;46.832;16.838;2023-04-25T06:40:35;14.10;87.80
32366;DHT22;18837;46.832;16.838;2023-04-25T06:43:01;14.10;87.60
32366;DHT22;18837;46.832;16.838;2023-04-25T06:45:27;14.10;87.60
32366;DHT22;18837;46.832;16.838;2023-04-25T06:47:52;14.10;87.20
32366;DHT22;18837;46.832;16.838;2023-04-25T06:50:18;14.10;87.60
32366;DHT22;18837;46.832;16.838;2023-04-25T06:52:44;14.10;87.80
32366;DHT22;18837;46.832;16.838;2023-04-25T06:55:10;14.10;87.40
32366;DHT22;18837;46.832;16.838;2023-04-25T06:57:36;14.10;87.50
32366;DHT22;18837;46.832;16.838;2023-04-25T07:00:03;14.10;87.00
32366;DHT22;18837;46.832;16.838;2023-04-25T07:02:31;14.20;87.50
32366;DHT22;18837;46.832;16.838;2023-04-25T07:04:57;14.20;86.00
32366;DHT22;18837;46.832;16.838;2023-04-25T07:07:26;14.20;86.80
32366;DHT22;18837;46.832;16.838;2023-04-25T07:09:52;14.20;87.30
32366;DHT22;18837;46.832;16.838;2023-04-25T07:12:17;14.20;86.80
32366;DHT22;18837;46.832;16.838;2023-04-25T07:14:43;14.20;87.40
32366;DHT22;18837;46.832;16.838;2023-04-25T07:17:09;14.20;86.90
32366;DHT22;18837;46.832;16.838;2023-04-25T07:19:35;14.20;86.00
32366;DHT22;18837;46.832;16.838;2023-04-25T07:22:02;14.20;87.10
32366;DHT22;18837;46.832;16.838;2023-04-25T07:24:37;14.30;86.70
32366;DHT22;18837;46.832;16.838;2023-04-25T07:27:03;14.30;85.80
32366;DHT22;18837;46.832;16.838;2023-04-25T07:29:29;14.30;86.00
32366;DHT22;18837;46.832;16.838;2023-04-25T07:31:56;14.30;85.80
32366;DHT22;18837;46.832;16.838;2023-04-25T07:34:22;14.40;86.30
32366;DHT22;18837;46.832;16.838;2023-04-25T07:36:47;14.40;86.30
32366;DHT22;18837;46.832;16.838;2023-04-25T07:39:13;14.40;86.50
32366;DHT22;18837;46.832;16.838;2023-04-25T07:41:39;14.40;86.50
32366;DHT22;18837;46.832;16.838;2023-04-25T07:44:05;14.40;86.30
32366;DHT22;18837;46.832;16.838;2023-04-25T07:46:31;14.50;85.80
32366;DHT22;18837;46.832;16.838;2023-04-25T07:48:57;14.50;85.80
32366;DHT22;18837;46.832;16.838;2023-04-25T07:51:22;14.50;85.90
32366;DHT22;18837;46.832;16.838;2023-04-25T07:53:48;14.50;85.90
32366;DHT22;18837;46.832;16.838;2023-04-25T07:56:14;14.60;85.90
32366;DHT22;18837;46.832;16.838;2023-04-25T07:58:40;14.60;86.00
32366;DHT22;18837;46.832;16.838;2023-04-25T08:01:06;14.60;85.60
32366;DHT22;18837;46.832;16.838;2023-04-25T08:03:32;14.60;85.40
32366;DHT22;18837;46.832;16.838;2023-04-25T08:05:58;14.70;85.60
32366;DHT22;18837;46.832;16.838;2023-04-25T08:08:24;14.70;85.30
32366;DHT22;18837;46.832;16.838;2023-04-25T08:10:50;14.70;85.20
32366;DHT22;18837;46.832;16.838;2023-04-25T08:13:16;14.80;85.20
32366;DHT22;18837;46.832;16.838;2023-04-25T08:15:41;14.80;85.10
32366;DHT22;18837;46.832;16.838;2023-04-25T08:18:07;14.80;85.00
32366;DHT22;18837;46.832;16.838;2023-04-25T08:20:33;14.80;84.70
32366;DHT22;18837;46.832;16.838;2023-04-25T08:22:59;14.80;84.10
32366;DHT22;18837;46.832;16.838;2023-04-25T08:25:25;14.90;83.20
32366;DHT22;18837;46.832;16.838;2023-04-25T08:27:51;14.90;83.30
32366;DHT22;18837;46.832;16.838;2023-04-25T08:30:17;14.90;82.60
32366;DHT22;18837;46.832;16.838;2023-04-25T08:32:43;14.90;82.40
32366;DHT22;18837;46.832;16.838;2023-04-25T08:35:09;14.90;83.10
32366;DHT22;18837;46.832;16.838;2023-04-25T08:37:35;15.00;82.80
32366;DHT22;18837;46.832;16.838;2023-04-25T08:40:02;15.00;83.30
32366;DHT22;18837;46.832;16.838;2023-04-25T08:42:33;15.10;83.00
32366;DHT22;18837;46.832;16.838;2023-04-25T08:45:01;15.10;83.50
32366;DHT22;18837;46.832;16.838;2023-04-25T08:47:30;15.20;82.90
32366;DHT22;18837;46.832;16.838;2023-04-25T08:49:59;15.20;83.00
32366;DHT22;18837;46.832;16.838;2023-04-25T08:52:31;15.30;83.30
32366;DHT22;18837;46.832;16.838;2023-04-25T08:54:58;15.30;83.00
32366;DHT22;18837;46.832;16.838;2023-04-25T08:57:26;15.40;82.30
32366;DHT22;18837;46.832;16.838;2023-04-25T08:59:53;15.40;82.90
32366;DHT22;18837;46.832;16.838;2023-04-25T09:02:19;15.50;82.80
32366;DHT22;18837;46.832;16.838;2023-04-25T09:04:46;15.50;83.20
32366;DHT22;18837;46.832;16.838;2023-04-25T09:07:12;15.60;83.50
32366;DHT22;18837;46.832;16.838;2023-04-25T09:09:41;15.60;83.60
32366;DHT22;18837;46.832;16.838;2023-04-25T09:12:07;15.70;83.50
32366;DHT22;18837;46.832;16.838;2023-04-25T09:14:33;15.80;83.20
32366;DHT22;18837;46.832;16.838;2023-04-25T09:17:01;15.80;83.60
32366;DHT22;18837;46.832;16.838;2023-04-25T09:19:32;15.90;82.60
32366;DHT22;18837;46.832;16.838;2023-04-25T09:22:00;15.90;82.40
32366;DHT22;18837;46.832;16.838;2023-04-25T09:24:42;15.90;82.00
32366;DHT22;18837;46.832;16.838;2023-04-25T09:27:11;16.00;81.30
32366;DHT22;18837;46.832;16.838;2023-04-25T09:29:40;16.00;82.00
32366;DHT22;18837;46.832;16.838;2023-04-25T09:32:21;16.10;81.60
32366;DHT22;18837;46.832;16.838;2023-04-25T09:34:51;16.10;81.60
32366;DHT22;18837;46.832;16.838;2023-04-25T09:39:48;16.20;81.30
32366;DHT22;18837;46.832;16.838;2023-04-25T09:42:15;16.20;81.60
32366;DHT22;18837;46.832;16.838;2023-04-25T09:44:46;16.30;81.40
32366;DHT22;18837;46.832;16.838;2023-04-25T09:47:13;16.30;82.00
32366;DHT22;18837;46.832;16.838;2023-04-25T09:49:41;16.40;81.70
32366;DHT22;18837;46.832;16.838;2023-04-25T09:52:09;16.40;80.70
32366;DHT22;18837;46.832;16.838;2023-04-25T09:54:35;16.60;80.30
32366;DHT22;18837;46.832;16.838;2023-04-25T09:59:46;16.60;80.30
32366;DHT22;18837;46.832;16.838;2023-04-25T10:02:14;16.60;80.30
32366;DHT22;18837;46.832;16.838;2023-04-25T10:04:41;16.70;79.30
32366;DHT22;18837;46.832;16.838;2023-04-25T10:07:08;16.70;80.80
32366;DHT22;18837;46.832;16.838;2023-04-25T10:09:37;16.70;81.60
32366;DHT22;18837;46.832;16.838;2023-04-25T10:12:05;16.70;80.50
32366;DHT22;18837;46.832;16.838;2023-04-25T10:14:32;16.70;80.60
32366;DHT22;18837;46.832;16.838;2023-04-25T10:17:00;16.70;80.80
32366;DHT22;18837;46.832;16.838;2023-04-25T10:19:28;16.80;82.20
32366;DHT22;18837;46.832;16.838;2023-04-25T10:22:41;16.80;83.10
32366;DHT22;18837;46.832;16.838;2023-04-25T10:25:07;16.90;83.10
32366;DHT22;18837;46.832;16.838;2023-04-25T10:27:34;16.90;81.10
32366;DHT22;18837;46.832;16.838;2023-04-25T10:30:11;16.90;79.50
32366;DHT22;18837;46.832;16.838;2023-04-25T10:32:42;17.00;80.60
32366;DHT22;18837;46.832;16.838;2023-04-25T10:37:38;17.10;81.10
32366;DHT22;18837;46.832;16.838;2023-04-25T10:40:11;17.10;80.60
32366;DHT22;18837;46.832;16.838;2023-04-25T10:42:36;17.10;78.30
32366;DHT22;18837;46.832;16.838;2023-04-25T10:45:05;17.10;79.10
32366;DHT22;18837;46.832;16.838;2023-04-25T10:47:43;17.10;79.20
32366;DHT22;18837;46.832;16.838;2023-04-25T10:50:10;17.10;80.70
32366;DHT22;18837;46.832;16.838;2023-04-25T10:52:38;17.10;79.40
32366;DHT22;18837;46.832;16.838;2023-04-25T10:55:06;17.10;80.10
32366;DHT22;18837;46.832;16.838;2023-04-25T10:57:42;17.00;79.50
32366;DHT22;18837;46.832;16.838;2023-04-25T11:00:10;17.00;79.60
32366;DHT22;18837;46.832;16.838;2023-04-25T11:02:40;16.90;78.70
32366;DHT22;18837;46.832;16.838;2023-04-25T11:05:06;16.90;77.90
32366;DHT22;18837;46.832;16.838;2023-04-25T11:07:50;16.80;78.70
32366;DHT22;18837;46.832;16.838;2023-04-25T11:10:17;16.80;78.10
32366;DHT22;18837;46.832;16.838;2023-04-25T11:12:45;16.70;77.20
32366;DHT22;18837;46.832;16.838;2023-04-25T11:15:12;16.70;78.20
32366;DHT22;18837;46.832;16.838;2023-04-25T11:17:39;16.70;78.10
32366;DHT22;18837;46.832;16.838;2023-04-25T11:20:07;16.60;77.60
32366;DHT22;18837;46.832;16.838;2023-04-25T11:22:38;16.60;77.70
32366;DHT22;18837;46.832;16.838;2023-04-25T11:25:05;16.60;78.80
32366;DHT22;18837;46.832;16.838;2023-04-25T11:27:31;16.60;78.80
32366;DHT22;18837;46.832;16.838;2023-04-25T11:29:57;16.60;79.20
32366;DHT22;18837;46.832;16.838;2023-04-25T11:32:23;16.60;80.30
32366;DHT22;18837;46.832;16.838;2023-04-25T11:34:49;16.70;80.60
32366;DHT22;18837;46.832;16.838;2023-04-25T11:37:15;16.70;80.50
32366;DHT22;18837;46.832;16.838;2023-04-25T11:39:45;16.70;79.40
32366;DHT22;18837;46.832;16.838;2023-04-25T11:42:13;16.70;78.70
32366;DHT22;18837;46.832;16.838;2023-04-25T11:44:40;16.80;78.60
32366;DHT22;18837;46.832;16.838;2023-04-25T11:47:06;16.70;78.70
32366;DHT22;18837;46.832;16.838;2023-04-25T11:49:32;16.70;78.00
32366;DHT22;18837;46.832;16.838;2023-04-25T11:51:58;16.70;78.00
32366;DHT22;18837;46.832;16.838;2023-04-25T11:54:24;16.70;78.10
32366;DHT22;18837;46.832;16.838;2023-04-25T11:56:50;16.70;78.30
32366;DHT22;18837;46.832;16.838;2023-04-25T11:59:15;16.70;78.80
32366;DHT22;18837;46.832;16.838;2023-04-25T12:01:48;16.60;79.10
32366;DHT22;18837;46.832;16.838;2023-04-25T12:04:22;16.60;79.60
32366;DHT22;18837;46.832;16.838;2023-04-25T12:06:50;16.60;79.80
32366;DHT22;18837;46.832;16.838;2023-04-25T12:09:21;16.50;79.40
32366;DHT22;18837;46.832;16.838;2023-04-25T12:11:55;16.60;79.00
32366;DHT22;18837;46.832;16.838;2023-04-25T12:14:31;16.50;79.80
32366;DHT22;18837;46.832;16.838;2023-04-25T12:16:59;16.60;80.80
32366;DHT22;18837;46.832;16.838;2023-04-25T12:19:29;16.60;80.40
32366;DHT22;18837;46.832;16.838;2023-04-25T12:21:57;16.60;78.60
32366;DHT22;18837;46.832;16.838;2023-04-25T12:24:24;16.60;78.40
32366;DHT22;18837;46.832;16.838;2023-04-25T12:27:00;16.60;79.20
32366;DHT22;18837;46.832;16.838;2023-04-25T12:29:29;16.70;79.00
32366;DHT22;18837;46.832;16.838;2023-04-25T12:31:56;16.70;77.70
32366;DHT22;18837;46.832;16.838;2023-04-25T12:34:23;16.80;76.50
32366;DHT22;18837;46.832;16.838;2023-04-25T12:36:50;16.80;77.50
32366;DHT22;18837;46.832;16.838;2023-04-25T12:39:21;16.90;79.40
32366;DHT22;18837;46.832;16.838;2023-04-25T12:41:51;16.90;80.50
32366;DHT22;18837;46.832;16.838;2023-04-25T12:44:19;16.90;78.10
32366;DHT22;18837;46.832;16.838;2023-04-25T12:46:45;17.00;79.70
32366;DHT22;18837;46.832;16.838;2023-04-25T12:49:12;17.00;81.20
32366;DHT22;18837;46.832;16.838;2023-04-25T12:51:38;17.10;81.50
32366;DHT22;18837;46.832;16.838;2023-04-25T12:54:05;17.10;80.20
32366;DHT22;18837;46.832;16.838;2023-04-25T12:56:34;17.10;79.50
32366;DHT22;18837;46.832;16.838;2023-04-25T12:59:00;17.10;79.20
32366;DHT22;18837;46.832;16.838;2023-04-25T13:01:27;17.10;80.00
32366;DHT22;18837;46.832;16.838;2023-04-25T13:03:53;17.10;79.90
32366;DHT22;18837;46.832;16.838;2023-04-25T13:06:19;17.10;80.30
32366;DHT22;18837;46.832;16.838;2023-04-25T13:08:46;17.10;80.70
32366;DHT22;18837;46.832;16.838;2023-04-25T13:11:12;17.10;80.20
32366;DHT22;18837;46.832;16.838;2023-04-25T13:13:40;17.10;80.00
32366;DHT22;18837;46.832;16.838;2023-04-25T13:16:06;17.10;79.40
32366;DHT22;18837;46.832;16.838;2023-04-25T13:18:33;17.10;78.90
32366;DHT22;18837;46.832;16.838;2023-04-25T13:20:59;17.10;77.90
32366;DHT22;18837;46.832;16.838;2023-04-25T13:23:26;17.10;78.00
32366;DHT22;18837;46.832;16.838;2023-04-25T13:25:52;17.10;78.40
32366;DHT22;18837;46.832;16.838;2023-04-25T13:28:18;17.10;77.60
32366;DHT22;18837;46.832;16.838;2023-04-25T13:30:45;17.10;77.80
32366;DHT22;18837;46.832;16.838;2023-04-25T13:33:11;17.10;78.70
32366;DHT22;18837;46.832;16.838;2023-04-25T13:35:38;17.10;81.20
32366;DHT22;18837;46.832;16.838;2023-04-25T13:38:04;17.20;83.10
32366;DHT22;18837;46.832;16.838;2023-04-25T13:40:30;17.20;82.80
32366;DHT22;18837;46.832;16.838;2023-04-25T13:42:56;17.30;81.60
32366;DHT22;18837;46.832;16.838;2023-04-25T13:45:22;17.40;81.40
32366;DHT22;18837;46.832;16.838;2023-04-25T13:47:48;17.40;80.20
32366;DHT22;18837;46.832;16.838;2023-04-25T13:50:13;17.50;80.10
32366;DHT22;18837;46.832;16.838;2023-04-25T13:52:41;17.50;78.80
32366;DHT22;18837;46.832;16.838;2023-04-25T13:55:08;17.60;79.10
32366;DHT22;18837;46.832;16.838;2023-04-25T13:57:34;17.60;78.80
32366;DHT22;18837;46.832;16.838;2023-04-25T14:00:00;17.60;78.20
32366;DHT22;18837;46.832;16.838;2023-04-25T14:02:33;17.60;78.10
32366;DHT22;18837;46.832;16.838;2023-04-25T14:04:58;17.60;77.10
32366;DHT22;18837;46.832;16.838;2023-04-25T14:07:24;17.70;78.50
32366;DHT22;18837;46.832;16.838;2023-04-25T14:09:50;17.70;75.10
32366;DHT22;18837;46.832;16.838;2023-04-25T14:12:16;17.70;74.00
32366;DHT22;18837;46.832;16.838;2023-04-25T14:14:42;17.70;73.70
32366;DHT22;18837;46.832;16.838;2023-04-25T14:17:08;17.60;75.40
32366;DHT22;18837;46.832;16.838;2023-04-25T14:19:34;17.60;76.50
32366;DHT22;18837;46.832;16.838;2023-04-25T14:22:01;17.60;76.70
32366;DHT22;18837;46.832;16.838;2023-04-25T14:24:27;17.50;75.30
32366;DHT22;18837;46.832;16.838;2023-04-25T14:26:53;17.50;72.80
32366;DHT22;18837;46.832;16.838;2023-04-25T14:29:18;17.40;71.20
32366;DHT22;18837;46.832;16.838;2023-04-25T14:31:44;17.40;71.80
32366;DHT22;18837;46.832;16.838;2023-04-25T14:34:10;17.40;72.40
32366;DHT22;18837;46.832;16.838;2023-04-25T14:36:36;17.40;72.60
32366;DHT22;18837;46.832;16.838;2023-04-25T14:39:03;17.40;71.20
32366;DHT22;18837;46.832;16.838;2023-04-25T14:41:30;17.40;71.20
32366;DHT22;18837;46.832;16.838;2023-04-25T14:43:56;17.40;71.10
32366;DHT22;18837;46.832;16.838;2023-04-25T14:46:22;17.50;71.70
32366;DHT22;18837;46.832;16.838;2023-04-25T14:48:49;17.50;71.70
32366;DHT22;18837;46.832;16.838;2023-04-25T14:51:15;17.50;73.60
32366;DHT22;18837;46.832;16.838;2023-04-25T14:53:41;17.50;72.60
32366;DHT22;18837;46.832;16.838;2023-04-25T14:56:07;17.50;73.40
32366;DHT22;18837;46.832;16.838;2023-04-25T14:58:34;17.50;74.00
32366;DHT22;18837;46.832;16.838;2023-04-25T15:01:00;17.50;72.00
32366;DHT22;18837;46.832;16.838;2023-04-25T15:03:26;17.50;72.90
32366;DHT22;18837;46.832;16.838;2023-04-25T15:05:55;17.40;72.90
32366;DHT22;18837;46.832;16.838;2023-04-25T15:08:21;17.40;72.40
32366;DHT22;18837;46.832;16.838;2023-04-25T15:10:47;17.50;71.50
32366;DHT22;18837;46.832;16.838;2023-04-25T15:13:13;17.50;71.10
32366;DHT22;18837;46.832;16.838;2023-04-25T15:15:39;17.50;71.30
32366;DHT22;18837;46.832;16.838;2023-04-25T15:18:05;17.40;71.20
32366;DHT22;18837;46.832;16.838;2023-04-25T15:20:31;17.40;71.10